sensor_id;sensor_type;location;lat;lon;timestamp;temperature;humidity
12446;DHT22;6287;50.984;7.022;2023-07-22T00:02:29;15.00;99.90
12446;DHT22;6287;50.984;7.022;2023-07-22T00:04:55;13.80;99.90
12446;DHT22;6287;50.984;7.022;2023-07-22T00:07:21;13.90;99.90
12446;DHT22;6287;50.984;7.022;2023-07-22T00:09:51;13.90;99.90
12446;DHT22;6287;50.984;7.022;2023-07-22T00:12:21;13.80;99.90
12446;DHT22;6287;50.984;7.022;2023-07-22T00:14:51;13.80;99.90
12446;DHT22;6287;50.984;7.022;2023-07-22T00:17:18;13.70;99.90
12446;DHT22;6287;50.984;7.022;2023-07-22T00:19:46;13.70;99.90
12446;DHT22;6287;50.984;7.022;2023-07-22T00:22:11;14.00;99.90
12446;DHT22;6287;50.984;7.022;2023-07-22T00:24:37;13.60;99.90
12446;DHT22;6287;50.984;7.022;2023-07-22T00:27:02;14.20;99.90
12446;DHT22;6287;50.984;7.022;2023-07-22T00:29:28;13.50;99.90
12446;DHT22;6287;50.984;7.022;2023-07-22T00:31:56;13.60;99.90
12446;DHT22;6287;50.984;7.022;2023-07-22T00:34:21;13.20;99.90
12446;DHT22;6287;50.984;7.022;2023-07-22T00:36:48;13.70;99.90
12446;DHT22;6287;50.984;7.022;2023-07-22T00:39:14;13.30;99.90
12446;DHT22;6287;50.984;7.022;2023-07-22T00:41:43;13.30;99.90
12446;DHT22;6287;50.984;7.022;2023-07-22T00:44:12;13.20;99.90
12446;DHT22;6287;50.984;7.022;2023-07-22T00:46:40;13.10;99.90
12446;DHT22;6287;50.984;7.022;2023-07-22T00:49:07;13.70;99.90
12446;DHT22;6287;50.984;7.022;2023-07-22T00:51:35;13.20;99.90
12446;DHT22;6287;50.984;7.022;2023-07-22T00:54:00;13.20;99.90
12446;DHT22;6287;50.984;7.022;2023-07-22T00:56:26;13.50;99.90
12446;DHT22;6287;50.984;7.022;2023-07-22T00:58:55;13.20;99.90
12446;DHT22;6287;50.984;7.022;2023-07-22T01:01:23;13.10;99.90
12446;DHT22;6287;50.984;7.022;2023-07-22T01:03:49;13.20;99.90
12446;DHT22;6287;50.984;7.022;2023-07-22T01:06:16;13.30;99.90
12446;DHT22;6287;50.984;7.022;2023-07-22T01:08:46;13.10;99.90
12446;DHT22;6287;50.984;7.022;2023-07-22T01:11:16;13.40;99.90
12446;DHT22;6287;50.984;7.022;2023-07-22T01:13:44;13.10;99.90
12446;DHT22;6287;50.984;7.022;2023-07-22T01:16:12;13.10;99.90
12446;DHT22;6287;50.984;7.022;2023-07-22T01:18:44;13.20;99.90
12446;DHT22;6287;50.984;7.022;2023-07-22T01:21:12;13.40;99.90
12446;DHT22;6287;50.984;7.022;2023-07-22T01:23:43;13.10;99.90
12446;DHT22;6287;50.984;7.022;2023-07-22T01:26:11;13.20;99.90
12446;DHT22;6287;50.984;7.022;2023-07-22T01:28:39;13.10;99.90
12446;DHT22;6287;50.984;7.022;2023-07-22T01:31:04;13.20;99.90
12446;DHT22;6287;50.984;7.022;2023-07-22T01:33:31;13.10;99.90
12446;DHT22;6287;50.984;7.022;2023-07-22T01:35:57;13.20;99.90
12446;DHT22;6287;50.984;7.022;2023-07-22T01:38:24;13.10;99.90
12446;DHT22;6287;50.984;7.022;2023-07-22T01:40:50;13.10;99.90
12446;DHT22;6287;50.984;7.022;2023-07-22T01:43:18;14.30;99.90
12446;DHT22;6287;50.984;7.022;2023-07-22T01:45:46;13.10;99.90
12446;DHT22;6287;50.984;7.022;2023-07-22T01:48:12;13.00;99.90
12446;DHT22;6287;50.984;7.022;2023-07-22T01:50:42;13.10;99.90
12446;DHT22;6287;50.984;7.022;2023-07-22T01:53:12;13.20;99.90
12446;DHT22;6287;50.984;7.022;2023-07-22T01:55:40;13.20;99.90
12446;DHT22;6287;50.984;7.022;2023-07-22T01:58:06;13.20;99.90
12446;DHT22;6287;50.984;7.022;2023-07-22T02:00:34;13.00;99.90
12446;DHT22;6287;50.984;7.022;2023-07-22T02:02:59;13.10;99.90
12446;DHT22;6287;50.984;7.022;2023-07-22T02:05:25;13.20;99.90
12446;DHT22;6287;50.984;7.022;2023-07-22T02:07:52;14.10;99.90
12446;DHT22;6287;50.984;7.022;2023-07-22T02:10:20;13.30;99.90
12446;DHT22;6287;50.984;7.022;2023-07-22T02:12:48;13.20;99.90
12446;DHT22;6287;50.984;7.022;2023-07-22T02:15:14;13.40;99.90
12446;DHT22;6287;50.984;7.022;2023-07-22T02:17:40;13.20;99.90
12446;DHT22;6287;50.984;7.022;2023-07-22T02:20:06;13.70;99.90
12446;DHT22;6287;50.984;7.022;2023-07-22T02:22:34;13.30;99.90
12446;DHT22;6287;50.984;7.022;2023-07-22T02:25:02;13.20;99.90
12446;DHT22;6287;50.984;7.022;2023-07-22T02:27:28;13.20;99.90
12446;DHT22;6287;50.984;7.022;2023-07-22T02:29:54;13.30;99.90
12446;DHT22;6287;50.984;7.022;2023-07-22T02:32:19;13.10;99.90
12446;DHT22;6287;50.984;7.022;2023-07-22T02:34:45;13.30;99.90
12446;DHT22;6287;50.984;7.022;2023-07-22T02:37:10;13.00;99.90
12446;DHT22;6287;50.984;7.022;2023-07-22T02:39:39;13.20;99.90
12446;DHT22;6287;50.984;7.022;2023-07-22T02:42:07;13.10;99.90
12446;DHT22;6287;50.984;7.022;2023-07-22T02:44:32;13.20;99.90
12446;DHT22;6287;50.984;7.022;2023-07-22T02:46:58;13.00;99.90
12446;DHT22;6287;50.984;7.022;2023-07-22T02:49:23;13.30;99.90
12446;DHT22;6287;50.984;7.022;2023-07-22T02:51:49;13.00;99.90
12446;DHT22;6287;50.984;7.022;2023-07-22T02:54:17;13.20;99.90
12446;DHT22;6287;50.984;7.022;2023-07-22T02:56:43;13.20;99.90
12446;DHT22;6287;50.984;7.022;2023-07-22T02:59:11;13.20;99.90
12446;DHT22;6287;50.984;7.022;2023-07-22T03:01:37;13.10;99.90
12446;DHT22;6287;50.984;7.022;2023-07-22T03:04:03;13.10;99.90
12446;DHT22;6287;50.984;7.022;2023-07-22T03:06:29;13.10;99.90
12446;DHT22;6287;50.984;7.022;2023-07-22T03:08:56;14.00;99.90
12446;DHT22;6287;50.984;7.022;2023-07-22T03:11:23;13.20;99.90
12446;DHT22;6287;50.984;7.022;2023-07-22T03:13:52;13.10;99.90
12446;DHT22;6287;50.984;7.022;2023-07-22T03:16:21;13.20;99.90
12446;DHT22;6287;50.984;7.022;2023-07-22T03:18:47;13.30;99.90
12446;DHT22;6287;50.984;7.022;2023-07-22T03:21:12;13.40;99.90
12446;DHT22;6287;50.984;7.022;2023-07-22T03:23:38;13.30;99.90
12446;DHT22;6287;50.984;7.022;2023-07-22T03:26:05;13.40;99.90
12446;DHT22;6287;50.984;7.022;2023-07-22T03:28:33;13.50;99.90
12446;DHT22;6287;50.984;7.022;2023-07-22T03:31:01;13.40;99.90
12446;DHT22;6287;50.984;7.022;2023-07-22T03:33:29;13.30;99.90
12446;DHT22;6287;50.984;7.022;2023-07-22T03:35:55;13.40;99.90
12446;DHT22;6287;50.984;7.022;2023-07-22T03:38:21;13.50;99.90
12446;DHT22;6287;50.984;7.022;2023-07-22T03:40:46;13.30;99.90
12446;DHT22;6287;50.984;7.022;2023-07-22T03:43:12;13.40;99.90
12446;DHT22;6287;50.984;7.022;2023-07-22T03:45:38;13.70;99.90
12446;DHT22;6287;50.984;7.022;2023-07-22T03:48:04;13.20;99.90
12446;DHT22;6287;50.984;7.022;2023-07-22T03:50:30;13.40;99.90
12446;DHT22;6287;50.984;7.022;2023-07-22T03:52:58;13.40;99.90
12446;DHT22;6287;50.984;7.022;2023-07-22T03:55:24;13.60;99.90
12446;DHT22;6287;50.984;7.022;2023-07-22T03:57:50;13.60;99.90
12446;DHT22;6287;50.984;7.022;2023-07-22T04:00:21;13.40;99.90
12446;DHT22;6287;50.984;7.022;2023-07-22T04:02:47;13.50;99.90
12446;DHT22;6287;50.984;7.022;2023-07-22T04:05:13;13.50;99.90
12446;DHT22;6287;50.984;7.022;2023-07-22T04:07:39;13.40;99.90
12446;DHT22;6287;50.984;7.022;2023-07-22T04:10:07;13.40;99.90
12446;DHT22;6287;50.984;7.022;2023-07-22T04:12:33;13.50;99.90
12446;DHT22;6287;50.984;7.022;2023-07-22T04:14:59;13.70;99.90
12446;DHT22;6287;50.984;7.022;2023-07-22T04:17:25;13.50;99.90
12446;DHT22;6287;50.984;7.022;2023-07-22T04:19:53;13.50;99.90
12446;DHT22;6287;50.984;7.022;2023-07-22T04:22:20;13.60;99.90
12446;DHT22;6287;50.984;7.022;2023-07-22T04:24:48;14.10;99.90
12446;DHT22;6287;50.984;7.022;2023-07-22T04:27:17;13.50;99.90
12446;DHT22;6287;50.984;7.022;2023-07-22T04:29:42;13.60;99.90
12446;DHT22;6287;50.984;7.022;2023-07-22T04:32:08;13.70;99.90
12446;DHT22;6287;50.984;7.022;2023-07-22T04:34:36;13.70;99.90
12446;DHT22;6287;50.984;7.022;2023-07-22T04:37:01;13.80;99.90
12446;DHT22;6287;50.984;7.022;2023-07-22T04:39:27;13.70;99.90
12446;DHT22;6287;50.984;7.022;2023-07-22T04:41:53;13.80;99.90
12446;DHT22;6287;50.984;7.022;2023-07-22T04:44:20;13.80;99.90
12446;DHT22;6287;50.984;7.022;2023-07-22T04:46:46;13.80;99.90
12446;DHT22;6287;50.984;7.022;2023-07-22T04:49:12;13.90;99.90
12446;DHT22;6287;50.984;7.022;2023-07-22T04:51:37;13.90;99.90
12446;DHT22;6287;50.984;7.022;2023-07-22T04:54:03;13.80;99.90
12446;DHT22;6287;50.984;7.022;2023-07-22T04:56:33;14.00;99.90
12446;DHT22;6287;50.984;7.022;2023-07-22T04:59:00;13.90;99.90
12446;DHT22;6287;50.984;7.022;2023-07-22T05:01:26;13.90;99.90
12446;DHT22;6287;50.984;7.022;2023-07-22T05:03:54;13.90;99.90
12446;DHT22;6287;50.984;7.022;2023-07-22T05:06:25;13.90;99.90
12446;DHT22;6287;50.984;7.022;2023-07-22T05:08:51;13.80;99.90
12446;DHT22;6287;50.984;7.022;2023-07-22T05:11:16;13.90;99.90
12446;DHT22;6287;50.984;7.022;2023-07-22T05:13:42;13.90;99.90
12446;DHT22;6287;50.984;7.022;2023-07-22T05:16:08;14.00;99.90
12446;DHT22;6287;50.984;7.022;2023-07-22T05:18:33;14.00;99.90
12446;DHT22;6287;50.984;7.022;2023-07-22T05:21:01;14.10;99.90
12446;DHT22;6287;50.984;7.022;2023-07-22T05:23:27;14.10;99.90
12446;DHT22;6287;50.984;7.022;2023-07-22T05:25:56;14.20;99.90
12446;DHT22;6287;50.984;7.022;2023-07-22T05:28:22;14.20;99.90
12446;DHT22;6287;50.984;7.022;2023-07-22T05:30:48;14.30;99.90
12446;DHT22;6287;50.984;7.022;2023-07-22T05:33:15;14.80;99.90
12446;DHT22;6287;50.984;7.022;2023-07-22T05:35:46;14.50;99.90
12446;DHT22;6287;50.984;7.022;2023-07-22T05:38:11;14.60;99.90
12446;DHT22;6287;50.984;7.022;2023-07-22T05:40:37;14.60;99.90
12446;DHT22;6287;50.984;7.022;2023-07-22T05:43:02;14.70;99.90
12446;DHT22;6287;50.984;7.022;2023-07-22T05:45:28;14.80;99.90
12446;DHT22;6287;50.984;7.022;2023-07-22T05:47:53;14.80;99.90
12446;DHT22;6287;50.984;7.022;2023-07-22T05:50:19;14.80;99.90
12446;DHT22;6287;50.984;7.022;2023-07-22T05:52:49;14.90;99.90
12446;DHT22;6287;50.984;7.022;2023-07-22T05:55:17;15.00;99.90
12446;DHT22;6287;50.984;7.022;2023-07-22T05:57:45;15.10;99.90
12446;DHT22;6287;50.984;7.022;2023-07-22T06:00:13;15.30;99.90
12446;DHT22;6287;50.984;7.022;2023-07-22T06:02:41;15.40;99.90
12446;DHT22;6287;50.984;7.022;2023-07-22T06:05:07;15.60;99.90
12446;DHT22;6287;50.984;7.022;2023-07-22T06:07:35;15.70;99.90
12446;DHT22;6287;50.984;7.022;2023-07-22T06:10:03;15.80;99.90
12446;DHT22;6287;50.984;7.022;2023-07-22T06:12:28;16.00;99.90
12446;DHT22;6287;50.984;7.022;2023-07-22T06:14:56;16.00;99.90
12446;DHT22;6287;50.984;7.022;2023-07-22T06:17:24;16.20;99.90
12446;DHT22;6287;50.984;7.022;2023-07-22T06:19:52;16.30;99.90
12446;DHT22;6287;50.984;7.022;2023-07-22T06:22:18;16.40;99.90
12446;DHT22;6287;50.984;7.022;2023-07-22T06:24:45;16.50;99.90
12446;DHT22;6287;50.984;7.022;2023-07-22T06:27:11;16.50;99.90
12446;DHT22;6287;50.984;7.022;2023-07-22T06:29:39;16.70;99.90
12446;DHT22;6287;50.984;7.022;2023-07-22T06:32:05;16.80;99.90
12446;DHT22;6287;50.984;7.022;2023-07-22T06:34:30;16.70;99.90
12446;DHT22;6287;50.984;7.022;2023-07-22T06:36:56;16.70;99.90
12446;DHT22;6287;50.984;7.022;2023-07-22T06:39:21;16.70;99.90
12446;DHT22;6287;50.984;7.022;2023-07-22T06:41:49;16.80;99.90
12446;DHT22;6287;50.984;7.022;2023-07-22T06:44:17;17.00;99.90
12446;DHT22;6287;50.984;7.022;2023-07-22T06:46:45;17.10;99.90
12446;DHT22;6287;50.984;7.022;2023-07-22T06:49:11;17.30;99.90
12446;DHT22;6287;50.984;7.022;2023-07-22T06:51:37;17.40;99.90
12446;DHT22;6287;50.984;7.022;2023-07-22T06:54:03;17.70;99.90
12446;DHT22;6287;50.984;7.022;2023-07-22T06:56:29;17.70;99.90
12446;DHT22;6287;50.984;7.022;2023-07-22T06:58:56;17.80;99.90
12446;DHT22;6287;50.984;7.022;2023-07-22T07:01:22;17.90;99.90
12446;DHT22;6287;50.984;7.022;2023-07-22T07:03:50;18.00;99.90
12446;DHT22;6287;50.984;7.022;2023-07-22T07:06:17;18.10;99.90
12446;DHT22;6287;50.984;7.022;2023-07-22T07:08:44;18.30;99.90
12446;DHT22;6287;50.984;7.022;2023-07-22T07:11:10;18.40;99.90
12446;DHT22;6287;50.984;7.022;2023-07-22T07:13:40;18.60;99.90
12446;DHT22;6287;50.984;7.022;2023-07-22T07:18:53;18.80;99.90
12446;DHT22;6287;50.984;7.022;2023-07-22T07:21:22;18.90;99.90
12446;DHT22;6287;50.984;7.022;2023-07-22T07:23:48;18.90;99.90
12446;DHT22;6287;50.984;7.022;2023-07-22T07:26:14;18.90;99.90
12446;DHT22;6287;50.984;7.022;2023-07-22T07:28:45;19.00;99.90
12446;DHT22;6287;50.984;7.022;2023-07-22T07:31:14;19.00;99.90
12446;DHT22;6287;50.984;7.022;2023-07-22T07:33:44;19.10;99.90
12446;DHT22;6287;50.984;7.022;2023-07-22T07:36:10;19.20;99.90
12446;DHT22;6287;50.984;7.022;2023-07-22T07:38:36;19.30;99.90
12446;DHT22;6287;50.984;7.022;2023-07-22T07:41:05;19.40;99.90
12446;DHT22;6287;50.984;7.022;2023-07-22T07:43:40;19.60;99.90
12446;DHT22;6287;50.984;7.022;2023-07-22T07:48:46;19.80;99.90
12446;DHT22;6287;50.984;7.022;2023-07-22T07:51:19;19.90;99.90
12446;DHT22;6287;50.984;7.022;2023-07-22T07:53:47;20.10;99.90
12446;DHT22;6287;50.984;7.022;2023-07-22T07:56:16;20.10;99.50
12446;DHT22;6287;50.984;7.022;2023-07-22T07:58:42;20.20;99.90
12446;DHT22;6287;50.984;7.022;2023-07-22T08:01:08;20.30;99.70
12446;DHT22;6287;50.984;7.022;2023-07-22T08:03:37;20.40;99.90
12446;DHT22;6287;50.984;7.022;2023-07-22T08:06:03;20.50;98.60
12446;DHT22;6287;50.984;7.022;2023-07-22T08:08:29;20.50;98.60
12446;DHT22;6287;50.984;7.022;2023-07-22T08:11:10;20.60;99.30
12446;DHT22;6287;50.984;7.022;2023-07-22T08:13:37;20.70;98.50
12446;DHT22;6287;50.984;7.022;2023-07-22T08:16:09;20.80;98.60
12446;DHT22;6287;50.984;7.022;2023-07-22T08:18:36;20.90;98.10
12446;DHT22;6287;50.984;7.022;2023-07-22T08:21:06;21.00;97.30
12446;DHT22;6287;50.984;7.022;2023-07-22T08:23:32;21.20;98.40
12446;DHT22;6287;50.984;7.022;2023-07-22T08:25:58;21.30;97.80
12446;DHT22;6287;50.984;7.022;2023-07-22T08:28:26;21.50;96.90
12446;DHT22;6287;50.984;7.022;2023-07-22T08:30:55;21.70;96.50
12446;DHT22;6287;50.984;7.022;2023-07-22T08:33:23;21.80;95.50
12446;DHT22;6287;50.984;7.022;2023-07-22T08:35:48;21.80;96.00
12446;DHT22;6287;50.984;7.022;2023-07-22T08:38:15;22.00;95.30
12446;DHT22;6287;50.984;7.022;2023-07-22T08:40:43;22.20;95.40
12446;DHT22;6287;50.984;7.022;2023-07-22T08:43:10;22.40;94.50
12446;DHT22;6287;50.984;7.022;2023-07-22T08:45:37;22.60;93.90
12446;DHT22;6287;50.984;7.022;2023-07-22T08:48:05;22.70;93.50
12446;DHT22;6287;50.984;7.022;2023-07-22T08:53:20;22.90;93.00
12446;DHT22;6287;50.984;7.022;2023-07-22T08:55:46;23.10;92.90
12446;DHT22;6287;50.984;7.022;2023-07-22T08:58:16;23.30;92.40
12446;DHT22;6287;50.984;7.022;2023-07-22T09:00:44;23.40;92.00
12446;DHT22;6287;50.984;7.022;2023-07-22T09:03:11;23.50;91.60
12446;DHT22;6287;50.984;7.022;2023-07-22T09:05:39;23.50;90.70
12446;DHT22;6287;50.984;7.022;2023-07-22T09:08:07;23.70;91.30
12446;DHT22;6287;50.984;7.022;2023-07-22T09:10:34;23.80;89.90
12446;DHT22;6287;50.984;7.022;2023-07-22T09:13:03;24.00;89.70
12446;DHT22;6287;50.984;7.022;2023-07-22T09:15:31;24.10;86.50
12446;DHT22;6287;50.984;7.022;2023-07-22T09:17:57;24.20;89.10
12446;DHT22;6287;50.984;7.022;2023-07-22T09:20:22;24.40;89.30
12446;DHT22;6287;50.984;7.022;2023-07-22T09:22:50;24.60;87.60
12446;DHT22;6287;50.984;7.022;2023-07-22T09:25:18;24.60;86.80
12446;DHT22;6287;50.984;7.022;2023-07-22T09:27:48;24.60;85.70
12446;DHT22;6287;50.984;7.022;2023-07-22T09:32:51;24.60;85.40
12446;DHT22;6287;50.984;7.022;2023-07-22T09:35:18;24.60;85.90
12446;DHT22;6287;50.984;7.022;2023-07-22T09:37:46;24.70;86.50
12446;DHT22;6287;50.984;7.022;2023-07-22T09:42:51;24.70;83.60
12446;DHT22;6287;50.984;7.022;2023-07-22T09:45:22;24.70;83.50
12446;DHT22;6287;50.984;7.022;2023-07-22T09:47:51;24.80;83.00
12446;DHT22;6287;50.984;7.022;2023-07-22T09:50:20;25.00;84.50
12446;DHT22;6287;50.984;7.022;2023-07-22T09:55:23;25.40;82.50
12446;DHT22;6287;50.984;7.022;2023-07-22T09:57:57;25.30;81.70
12446;DHT22;6287;50.984;7.022;2023-07-22T10:00:32;25.00;80.00
12446;DHT22;6287;50.984;7.022;2023-07-22T10:03:06;24.70;82.00
12446;DHT22;6287;50.984;7.022;2023-07-22T10:05:35;24.70;81.60
12446;DHT22;6287;50.984;7.022;2023-07-22T10:08:02;24.90;80.90
12446;DHT22;6287;50.984;7.022;2023-07-22T10:10:34;25.00;81.40
12446;DHT22;6287;50.984;7.022;2023-07-22T10:13:03;25.50;82.80
12446;DHT22;6287;50.984;7.022;2023-07-22T10:15:36;26.00;79.80
12446;DHT22;6287;50.984;7.022;2023-07-22T10:18:05;26.20;77.40
12446;DHT22;6287;50.984;7.022;2023-07-22T10:20:34;26.30;75.70
12446;DHT22;6287;50.984;7.022;2023-07-22T10:23:04;26.40;75.90
12446;DHT22;6287;50.984;7.022;2023-07-22T10:25:33;26.60;70.00
12446;DHT22;6287;50.984;7.022;2023-07-22T10:27:58;26.90;69.10
12446;DHT22;6287;50.984;7.022;2023-07-22T10:30:26;27.20;67.60
12446;DHT22;6287;50.984;7.022;2023-07-22T10:32:53;27.30;61.90
12446;DHT22;6287;50.984;7.022;2023-07-22T10:35:37;27.40;67.00
12446;DHT22;6287;50.984;7.022;2023-07-22T10:38:15;27.50;61.60
12446;DHT22;6287;50.984;7.022;2023-07-22T10:40:47;27.40;62.70
12446;DHT22;6287;50.984;7.022;2023-07-22T10:43:23;26.90;59.20
12446;DHT22;6287;50.984;7.022;2023-07-22T10:45:54;26.50;60.40
12446;DHT22;6287;50.984;7.022;2023-07-22T10:48:25;26.50;64.90
12446;DHT22;6287;50.984;7.022;2023-07-22T10:50:54;26.70;64.90
12446;DHT22;6287;50.984;7.022;2023-07-22T11:14:25;29.50;56.20
12446;DHT22;6287;50.984;7.022;2023-07-22T11:16:52;29.70;56.90
12446;DHT22;6287;50.984;7.022;2023-07-22T11:19:22;29.80;56.20
12446;DHT22;6287;50.984;7.022;2023-07-22T11:21:52;29.70;54.60
12446;DHT22;6287;50.984;7.022;2023-07-22T11:24:22;29.60;52.90
12446;DHT22;6287;50.984;7.022;2023-07-22T11:26:48;29.40;53.10
12446;DHT22;6287;50.984;7.022;2023-07-22T11:29:17;29.30;52.20
12446;DHT22;6287;50.984;7.022;2023-07-22T11:31:46;29.20;51.30
12446;DHT22;6287;50.984;7.022;2023-07-22T11:34:16;28.80;50.90
12446;DHT22;6287;50.984;7.022;2023-07-22T11:36:45;28.30;52.80
12446;DHT22;6287;50.984;7.022;2023-07-22T11:39:16;28.30;52.50
12446;DHT22;6287;50.984;7.022;2023-07-22T11:41:43;28.10;52.90
12446;DHT22;6287;50.984;7.022;2023-07-22T11:44:11;28.20;51.70
12446;DHT22;6287;50.984;7.022;2023-07-22T11:49:46;28.20;52.30
12446;DHT22;6287;50.984;7.022;2023-07-22T11:52:16;28.30;51.90
12446;DHT22;6287;50.984;7.022;2023-07-22T11:54:47;28.20;50.30
12446;DHT22;6287;50.984;7.022;2023-07-22T11:57:20;28.10;51.50
12446;DHT22;6287;50.984;7.022;2023-07-22T11:59:56;28.00;51.20
12446;DHT22;6287;50.984;7.022;2023-07-22T12:02:26;28.20;53.90
12446;DHT22;6287;50.984;7.022;2023-07-22T12:05:05;28.30;50.40
12446;DHT22;6287;50.984;7.022;2023-07-22T12:07:36;28.50;52.00
12446;DHT22;6287;50.984;7.022;2023-07-22T12:10:06;28.70;52.20
12446;DHT22;6287;50.984;7.022;2023-07-22T12:12:42;29.00;52.60
12446;DHT22;6287;50.984;7.022;2023-07-22T12:20:17;29.60;48.80
12446;DHT22;6287;50.984;7.022;2023-07-22T12:22:43;29.40;49.20
12446;DHT22;6287;50.984;7.022;2023-07-22T12:25:12;29.10;48.40
12446;DHT22;6287;50.984;7.022;2023-07-22T12:27:37;28.70;48.70
12446;DHT22;6287;50.984;7.022;2023-07-22T12:30:04;28.70;50.10
12446;DHT22;6287;50.984;7.022;2023-07-22T12:32:31;29.00;51.10
12446;DHT22;6287;50.984;7.022;2023-07-22T12:34:56;29.50;49.40
12446;DHT22;6287;50.984;7.022;2023-07-22T12:37:22;29.50;47.60
12446;DHT22;6287;50.984;7.022;2023-07-22T12:39:47;29.30;49.40
12446;DHT22;6287;50.984;7.022;2023-07-22T12:42:15;29.20;48.80
12446;DHT22;6287;50.984;7.022;2023-07-22T12:44:43;29.10;50.90
12446;DHT22;6287;50.984;7.022;2023-07-22T12:47:09;29.30;49.10
12446;DHT22;6287;50.984;7.022;2023-07-22T12:49:41;30.10;49.80
12446;DHT22;6287;50.984;7.022;2023-07-22T12:52:09;30.80;48.30
12446;DHT22;6287;50.984;7.022;2023-07-22T12:54:35;31.50;46.70
12446;DHT22;6287;50.984;7.022;2023-07-22T12:57:04;32.30;46.30
12446;DHT22;6287;50.984;7.022;2023-07-22T12:59:30;32.70;45.40
12446;DHT22;6287;50.984;7.022;2023-07-22T13:01:57;32.90;43.10
12446;DHT22;6287;50.984;7.022;2023-07-22T13:04:26;32.80;40.10
12446;DHT22;6287;50.984;7.022;2023-07-22T13:06:56;33.00;40.90
12446;DHT22;6287;50.984;7.022;2023-07-22T13:09:23;33.10;41.00
12446;DHT22;6287;50.984;7.022;2023-07-22T13:11:49;33.50;39.80
12446;DHT22;6287;50.984;7.022;2023-07-22T13:14:15;33.50;38.50
12446;DHT22;6287;50.984;7.022;2023-07-22T13:16:45;33.50;38.90
12446;DHT22;6287;50.984;7.022;2023-07-22T13:19:13;33.40;37.90
12446;DHT22;6287;50.984;7.022;2023-07-22T13:21:39;33.60;36.80
12446;DHT22;6287;50.984;7.022;2023-07-22T13:24:07;33.30;38.20
12446;DHT22;6287;50.984;7.022;2023-07-22T13:26:36;33.60;39.90
12446;DHT22;6287;50.984;7.022;2023-07-22T13:29:02;33.40;36.60
12446;DHT22;6287;50.984;7.022;2023-07-22T13:31:27;33.20;36.30
12446;DHT22;6287;50.984;7.022;2023-07-22T13:33:55;33.30;37.00
12446;DHT22;6287;50.984;7.022;2023-07-22T13:36:23;33.50;37.30
12446;DHT22;6287;50.984;7.022;2023-07-22T13:38:50;34.00;37.60
12446;DHT22;6287;50.984;7.022;2023-07-22T13:41:18;34.10;37.40
12446;DHT22;6287;50.984;7.022;2023-07-22T13:43:46;34.20;37.00
12446;DHT22;6287;50.984;7.022;2023-07-22T13:46:14;34.10;34.60
12446;DHT22;6287;50.984;7.022;2023-07-22T13:48:42;33.40;37.10
12446;DHT22;6287;50.984;7.022;2023-07-22T13:51:10;33.00;38.60
12446;DHT22;6287;50.984;7.022;2023-07-22T13:53:36;33.10;39.20
12446;DHT22;6287;50.984;7.022;2023-07-22T13:56:06;33.30;38.00
12446;DHT22;6287;50.984;7.022;2023-07-22T13:58:35;32.90;37.10
12446;DHT22;6287;50.984;7.022;2023-07-22T14:01:03;32.30;36.80
12446;DHT22;6287;50.984;7.022;2023-07-22T14:03:29;31.80;38.90
12446;DHT22;6287;50.984;7.022;2023-07-22T14:05:54;31.80;37.70
12446;DHT22;6287;50.984;7.022;2023-07-22T14:08:22;32.00;40.00
12446;DHT22;6287;50.984;7.022;2023-07-22T14:10:51;32.00;39.50
12446;DHT22;6287;50.984;7.022;2023-07-22T14:13:19;31.70;38.50
12446;DHT22;6287;50.984;7.022;2023-07-22T14:15:45;31.60;40.50
12446;DHT22;6287;50.984;7.022;2023-07-22T14:18:13;32.10;40.30
12446;DHT22;6287;50.984;7.022;2023-07-22T14:20:46;32.80;39.20
12446;DHT22;6287;50.984;7.022;2023-07-22T14:23:12;33.30;38.20
12446;DHT22;6287;50.984;7.022;2023-07-22T14:25:40;33.60;35.60
12446;DHT22;6287;50.984;7.022;2023-07-22T14:28:06;33.30;36.10
12446;DHT22;6287;50.984;7.022;2023-07-22T14:30:33;32.70;36.50
12446;DHT22;6287;50.984;7.022;2023-07-22T14:32:59;32.20;36.30
12446;DHT22;6287;50.984;7.022;2023-07-22T14:35:25;32.10;37.80
12446;DHT22;6287;50.984;7.022;2023-07-22T14:37:50;32.40;37.90
12446;DHT22;6287;50.984;7.022;2023-07-22T14:40:19;32.80;36.40
12446;DHT22;6287;50.984;7.022;2023-07-22T14:42:44;32.70;35.70
12446;DHT22;6287;50.984;7.022;2023-07-22T14:45:12;32.40;36.60
12446;DHT22;6287;50.984;7.022;2023-07-22T14:47:38;32.50;37.00
12446;DHT22;6287;50.984;7.022;2023-07-22T14:50:06;32.90;39.30
12446;DHT22;6287;50.984;7.022;2023-07-22T14:52:32;33.40;38.50
12446;DHT22;6287;50.984;7.022;2023-07-22T14:54:58;33.60;36.10
12446;DHT22;6287;50.984;7.022;2023-07-22T14:57:23;33.40;37.20
12446;DHT22;6287;50.984;7.022;2023-07-22T14:59:57;33.10;36.10
12446;DHT22;6287;50.984;7.022;2023-07-22T15:02:23;33.10;36.70
12446;DHT22;6287;50.984;7.022;2023-07-22T15:04:53;33.40;37.30
12446;DHT22;6287;50.984;7.022;2023-07-22T15:07:22;33.20;36.40
12446;DHT22;6287;50.984;7.022;2023-07-22T15:09:51;33.00;36.70
12446;DHT22;6287;50.984;7.022;2023-07-22T15:12:19;33.20;36.30
12446;DHT22;6287;50.984;7.022;2023-07-22T15:14:49;33.30;36.80
12446;DHT22;6287;50.984;7.022;2023-07-22T15:17:15;33.50;37.40
12446;DHT22;6287;50.984;7.022;2023-07-22T15:19:45;33.00;37.60
12446;DHT22;6287;50.984;7.022;2023-07-22T15:22:10;32.50;36.60
12446;DHT22;6287;50.984;7.022;2023-07-22T15:24:38;31.90;37.00
12446;DHT22;6287;50.984;7.022;2023-07-22T15:27:07;31.60;37.70
12446;DHT22;6287;50.984;7.022;2023-07-22T15:29:35;31.60;39.40
12446;DHT22;6287;50.984;7.022;2023-07-22T15:32:04;31.50;51.60
12446;DHT22;6287;50.984;7.022;2023-07-22T15:34:30;31.60;43.70
12446;DHT22;6287;50.984;7.022;2023-07-22T15:36:55;31.50;37.60
12446;DHT22;6287;50.984;7.022;2023-07-22T15:39:21;31.40;36.90
12446;DHT22;6287;50.984;7.022;2023-07-22T15:41:47;31.10;38.30
12446;DHT22;6287;50.984;7.022;2023-07-22T15:44:12;30.80;39.40
12446;DHT22;6287;50.984;7.022;2023-07-22T15:46:40;30.70;40.20
12446;DHT22;6287;50.984;7.022;2023-07-22T15:49:08;30.80;40.00
12446;DHT22;6287;50.984;7.022;2023-07-22T15:51:33;30.80;40.40
12446;DHT22;6287;50.984;7.022;2023-07-22T15:53:59;30.80;48.10
12446;DHT22;6287;50.984;7.022;2023-07-22T15:56:25;30.80;41.60
12446;DHT22;6287;50.984;7.022;2023-07-22T15:58:50;30.90;41.50
12446;DHT22;6287;50.984;7.022;2023-07-22T16:01:19;30.80;42.50
12446;DHT22;6287;50.984;7.022;2023-07-22T16:03:47;30.50;41.50
12446;DHT22;6287;50.984;7.022;2023-07-22T16:06:13;30.30;42.40
12446;DHT22;6287;50.984;7.022;2023-07-22T16:08:39;30.10;43.00
12446;DHT22;6287;50.984;7.022;2023-07-22T16:11:04;30.00;43.60
12446;DHT22;6287;50.984;7.022;2023-07-22T16:13:30;29.90;43.80
12446;DHT22;6287;50.984;7.022;2023-07-22T16:18:24;29.80;42.80
12446;DHT22;6287;50.984;7.022;2023-07-22T16:20:50;29.90;43.50
12446;DHT22;6287;50.984;7.022;2023-07-22T16:23:15;30.00;43.30
12446;DHT22;6287;50.984;7.022;2023-07-22T16:25:44;30.10;43.80
12446;DHT22;6287;50.984;7.022;2023-07-22T16:28:10;30.20;43.70
12446;DHT22;6287;50.984;7.022;2023-07-22T16:30:38;30.30;42.90
12446;DHT22;6287;50.984;7.022;2023-07-22T16:33:06;30.30;44.40
12446;DHT22;6287;50.984;7.022;2023-07-22T16:35:31;30.10;43.40